createdAt,value
2022-12-11T00:07:18.497Z,0.51
2022-12-11T00:17:18.575Z,0.47
2022-12-11T00:27:18.487Z,0.43
2022-12-11T00:37:18.557Z,0.41
2022-12-11T00:47:18.500Z,0.36
2022-12-11T00:57:18.617Z,0.41
2022-12-11T01:07:18.511Z,0.38
2022-12-11T01:17:18.592Z,0.42
2022-12-11T01:27:18.521Z,0.5
2022-12-11T01:37:18.578Z,0.51
2022-12-11T01:47:18.553Z,0.45
2022-12-11T01:57:18.576Z,0.41
2022-12-11T02:07:18.555Z,0.31
2022-12-11T02:17:18.579Z,0.42
2022-12-11T02:27:18.568Z,0.37
2022-12-11T02:37:18.599Z,0.29
2022-12-11T02:47:18.585Z,0.28
2022-12-11T02:57:18.585Z,0.36
2022-12-11T03:07:18.602Z,0.4
2022-12-11T03:17:18.654Z,0.48
2022-12-11T03:27:18.609Z,0.42
2022-12-11T03:37:18.646Z,0.41
2022-12-11T03:47:18.603Z,0.4
2022-12-11T03:57:18.635Z,0.39
2022-12-11T04:07:18.613Z,0.4
2022-12-11T04:17:18.634Z,0.42
2022-12-11T04:27:18.638Z,0.47
2022-12-11T04:37:18.658Z,0.54
2022-12-11T04:47:18.625Z,0.55
2022-12-11T04:57:18.680Z,0.5
2022-12-11T05:07:18.652Z,0.5
2022-12-11T05:17:18.661Z,0.5
2022-12-11T05:27:18.646Z,0.56
2022-12-11T05:37:18.718Z,0.51
2022-12-11T05:47:18.669Z,0.49
2022-12-11T05:57:18.689Z,0.46
2022-12-11T06:07:18.667Z,0.41
2022-12-11T06:17:23.812Z,0.37
2022-12-11T06:27:18.820Z,0.39
2022-12-11T06:37:18.689Z,0.37
2022-12-11T06:47:18.708Z,0.41
2022-12-11T06:57:18.700Z,0.42
2022-12-11T07:07:18.734Z,0.55
2022-12-11T07:17:18.712Z,0.64
2022-12-11T07:27:18.744Z,0.74
2022-12-11T07:37:18.721Z,0.84
2022-12-11T07:47:18.910Z,0.84
2022-12-11T07:57:18.717Z,1.01
2022-12-11T08:07:18.771Z,1.19
2022-12-11T08:17:18.723Z,1.22
2022-12-11T08:27:18.766Z,1.19
2022-12-11T08:37:18.741Z,1.4
2022-12-11T08:47:18.833Z,1.32
2022-12-11T08:57:18.744Z,1.39
2022-12-11T09:07:18.803Z,1.41
2022-12-11T09:17:18.754Z,1.45
2022-12-11T09:27:18.882Z,1.33
2022-12-11T09:37:18.781Z,1.05
2022-12-11T09:47:18.815Z,0.82
2022-12-11T09:57:18.784Z,0.7
2022-12-11T10:07:18.822Z,0.76
2022-12-11T10:17:18.790Z,0.75
2022-12-11T10:27:18.838Z,0.86
2022-12-11T10:37:18.808Z,0.82
2022-12-11T10:47:18.835Z,0.95
2022-12-11T10:57:18.815Z,0.88
2022-12-11T11:07:18.831Z,0.58
2022-12-11T11:17:18.818Z,0.49
2022-12-11T11:27:18.857Z,0.37
2022-12-11T11:37:18.857Z,0.56
2022-12-11T11:47:18.861Z,0.48
2022-12-11T11:57:18.843Z,0.47
2022-12-11T12:07:18.868Z,0.46
2022-12-11T12:17:18.952Z,0.49
2022-12-11T12:27:50.312Z,0.35
2022-12-11T12:37:18.868Z,0.27
2022-12-11T12:47:18.881Z,0.23
2022-12-11T12:57:18.873Z,0.3
2022-12-11T13:07:18.908Z,0.24
2022-12-11T13:17:18.899Z,0.03
2022-12-11T13:27:18.903Z,-0.01
2022-12-11T13:37:18.876Z,-0.03
2022-12-11T13:47:18.928Z,-0.2
2022-12-11T13:57:18.943Z,-0.22
2022-12-11T14:07:18.944Z,-0.24
2022-12-11T14:17:18.911Z,-0.29
2022-12-11T14:27:18.957Z,-0.29
2022-12-11T14:37:18.933Z,-0.32
2022-12-11T14:47:18.979Z,-0.41
2022-12-11T14:57:18.962Z,-0.46
2022-12-11T15:07:19.043Z,-0.5
2022-12-11T15:17:18.963Z,-0.63
2022-12-11T15:27:18.980Z,-0.77
2022-12-11T15:37:18.982Z,-0.87
2022-12-11T15:47:19.033Z,-0.94
2022-12-11T15:57:19.002Z,-1
2022-12-11T16:07:19.016Z,-0.96
2022-12-11T16:17:18.989Z,-1.12
2022-12-11T16:27:23.025Z,-1.22
2022-12-11T16:37:19.009Z,-1.27
2022-12-11T16:47:19.048Z,-1.28
2022-12-11T16:57:19.024Z,-1.22
2022-12-11T17:07:19.086Z,-1.28
2022-12-11T17:17:19.034Z,-1.32
2022-12-11T17:27:24.203Z,-1.31
2022-12-11T17:37:19.114Z,-1.28
2022-12-11T17:47:19.073Z,-1.31
2022-12-11T17:57:19.081Z,-1.31
2022-12-11T18:07:19.091Z,-1.26
2022-12-11T18:17:19.081Z,-1.35
2022-12-11T18:27:19.139Z,-1.35
2022-12-11T18:37:22.237Z,-1.45
2022-12-11T18:47:19.231Z,-1.52
2022-12-11T18:57:19.117Z,-1.55
2022-12-11T19:07:19.269Z,-1.51
2022-12-11T19:17:19.149Z,-1.6
2022-12-11T19:27:19.145Z,-1.64
2022-12-11T19:37:19.179Z,-1.7
2022-12-11T19:47:19.138Z,-1.8
2022-12-11T19:57:25.166Z,-1.84
2022-12-11T20:07:19.189Z,-1.95
2022-12-11T20:17:19.207Z,-1.98
2022-12-11T20:27:19.206Z,-1.99
2022-12-11T20:37:19.185Z,-1.99
2022-12-11T20:47:19.235Z,-2.01
2022-12-11T20:57:19.225Z,-2.11
2022-12-11T21:07:19.240Z,-2.23
2022-12-11T21:17:19.231Z,-2.31
2022-12-11T21:27:19.263Z,-2.52
2022-12-11T21:37:19.234Z,-2.6
2022-12-11T21:47:24.532Z,-2.82
2022-12-11T21:57:26.673Z,-2.93
2022-12-11T22:07:19.325Z,-3
2022-12-11T22:17:19.291Z,-3.23
2022-12-11T22:27:23.577Z,-3.44
2022-12-11T22:37:19.303Z,-3.5
2022-12-11T22:47:25.319Z,-3.57
2022-12-11T22:57:19.331Z,-3.65
2022-12-11T23:07:19.337Z,-3.7
2022-12-11T23:17:19.368Z,-3.75
2022-12-11T23:27:19.362Z,-3.73
2022-12-11T23:37:19.362Z,-3.69
2022-12-11T23:47:19.374Z,-3.81
2022-12-11T23:57:19.445Z,-4.25
